Somerton, Ohio
Current Conditions -  °F | °C
As of 1:03 AM on Wednesday 28 Jan 2015 (Local Time) from KHLG Reporting Station
Overcast Overcast  
Wind Chill:   Ceiling: 1300
Heat Index: 14°   Visibility: 10mi
Dew Point:   Wind: 6mph
Humidity: 80%   Direction: 300°WNW
Pressure: 30.15"   Gusts: NA
Location:  39.9851°N, 81.1697°W
Report Text: KHLG 280603Z AUTO 30005KT 10SM OVC013 M10/M13 A3015 RMK AO2 T11001128
Loading
Personal Weather Stations






























Interactive Weather Map New forecast layout! Learn more

10-Day Weather Forecast

Advertisements
Track Severe Weather on mobile